AirNav   Everest Fuels
 
 426 users online  

79AK Huttunen Strip Airport
Wasilla, Alaska, USA

GOING TO WASILLA?


FAA INFORMATION EFFECTIVE 18 JUNE 2020

Location

FAA Identifier: 79AK
Lat/Long: 61-28-54.6200N 149-44-38.4700W
61-28.910333N 149-44.641167W
61.4818389,-149.7440194
(estimated)
Elevation: 254 ft. / 77 m (estimated)
From city: 10 miles NE of WASILLA, AK
Time zone: UTC -8 (UTC -9 during Standard Time)
Zip code: 99567

Airport Operations

Airport use: Private use. Permission required prior to landing
Activation date: 03/2007
Control tower: no
ARTCC: ANCHORAGE CENTER
FSS: KENAI FLIGHT SERVICE STATION [907-283-7211]
Attendance: UNATNDD
Segmented circle: no

Airport Communications

CTAF: 122.8
WX AWOS-3P at BCV (8 nm SE): 135.55 (907-688-0826)
WX AWOS-3P at IYS (8 nm NE): 135.25 (907-373-3801)
WX ASOS at FRN (13 nm S): 134.25
WX ASOS at MRI (16 nm S): 124.25 (907-271-5277)
WX ASOS at LHD (19 nm S): PHONE 907-245-5432
WX ASOS at ANC (20 nm S): PHONE 907-271-5278
WX ASOS at PAQ (20 nm E): 134.75 (907-746-6675)

Nearby radio navigation aids

VOR radial/distance  VOR name  Freq  Var
BGQr110/8.3BIG LAKE VORTAC112.5019E
TEDr000/19.8ANCHORAGE VOR/DME113.1518E

 
NDB name  Hdg/Dist  Freq  Var  ID
CAMPBELL LAKE009/20.633816ECMQ -.-. -- --.-

Airport Services

Runway Information

Runway 11/29

Dimensions: 1500 x 100 ft. / 457 x 30 m
Surface: turf
RUNWAY 11  RUNWAY 29
Traffic pattern: leftleft
Obstructions: 70 ft. pline, 400 ft. from runwaynone

Airport Ownership and Management from official FAA records

Ownership: Privately-owned
Owner: DAN HUTTUNEN
P O BOX 874105
WASILLA, AK 99687-4105
Phone 907-376-2975
Manager: DAN HUTTUNEN
P O BOX 874105
WASILLA, AK 99687-4105
Phone 907-376-2975

Airport Operational Statistics

Aircraft based on the field: 3
Single engine airplanes: 3
    
Aircraft operations: avg 21/month
80% local general aviation
20% transient general aviation

Additional Remarks

ALL TRAFFIC MONITOR & ANNC INTNS ON CTAF.

Instrument Procedures

There are no published instrument procedures at 79AK.

Some nearby airports with instrument procedures:

PAGQ - Big Lake Airport (4 nm NW)
PAWS - Wasilla Airport (8 nm NE)
PAFR - Bryant Army Airfield Heliport (13 nm S)
PAED - Elmendorf Air Force Base (14 nm S)
PAMR - Merrill Field Airport (16 nm S)
PAUO - Willow Airport (19 nm NW)
PANC - Ted Stevens Anchorage International Airport (20 nm S)
PAAQ - Warren "Bud" Woods Palmer Municipal Airport (20 nm E)
 
Loc | Ops | Rwys | IFR | FBO | Links
Com | Nav | Svcs | Stats | Notes

Crowley
 
Area around 79AK (Huttunen Strip Airport)
 
Road maps at: MapQuest Bing Google
 
Aerial photo
No photo
 
Sectional chart

 
Airport distance calculator
Flying to Huttunen Strip Airport? Find the distance to fly.

From to 79AK

Sunrise and sunset
Times for 11-Jul-2020
 Local
(UTC-8)
 Zulu
(UTC)
Morning civil twilight02:5510:55
Sunrise04:4312:43
Sunset23:2607:26
Evening civil twilight01:1409:14

Current date and time
Zulu (UTC)  11-Jul-2020 10:42:19
Local (UTC-8)  11-Jul-2020 02:42:19
 
METAR
PABV 
8nm SE 
110956Z AUTO 25003KT 10SM FEW003 SCT046 OVC090 13/13 A2977 RMK AO2 RAB24E35 SLP086 P0000 T01330128
PAFR 
13nm S 
110958Z AUTO 00000KT 10SM OVC028 14/12 A2974 RMK AO2 SLP076 T01390124 $
PAED 
14nm S 
110956Z 15004KT 10SM BKN031 16/12 A2976 RMK AO2A SLP073 T01590115 $
PAMR 
16nm S 
110953Z 18005KT 10SM SCT034 BKN043 BKN055 16/10 A2975 RMK AO2 SLP075 T01560100
PALH 
19nm S 
110953Z 19007KT 10SM CLR 15/12 A2977 RMK AO2 SLP080 T01500117
TAF
PAED 
14nm S 
111000Z 1110/1216 VRB05KT 9999 FEW010 BKN030 QNH2972INS BECMG 1119/1120 24009KT 9999 VCSH BKN050 QNH2970INS BECMG 1201/1202 25009KT 8000 -SHRA BKN040 QNH2970INS BECMG 1207/1208 VRB04KT 9999 VCSH BKN040 QNH2972INS TX20/1202Z TN13/1113Z
NOTAMs
Click for the latest NOTAMs
NOTAMs are issued by the DoD/FAA and will open in a separate window not controlled by AirNav.

 

 
 

Would you like to see your business listed on this page?

 If your business provides an interesting product or service to pilots, flight crews, aircraft, or users of the Huttunen Strip Airport, you should consider listing it here.  To start the listing process, click on the button below
 
Add a business
 

Other Pages about Huttunen Strip Airport

Update a link
 
Copyright © AirNav, LLC. All rights reserved. Privacy Policy  Contact